createdAt,value
2022-09-17T00:04:04.941Z,96820.13
2022-09-17T00:09:07.122Z,96813.34
2022-09-17T00:14:11.047Z,96832.66
2022-09-17T00:19:13.920Z,96817.22
2022-09-17T00:24:15.993Z,96823.19
2022-09-17T00:29:17.341Z,96830.53
2022-09-17T00:34:18.637Z,96822.06
2022-09-17T00:39:19.931Z,96832.56
2022-09-17T00:44:39.412Z,96824.53
2022-09-17T00:49:40.800Z,96827.78
2022-09-17T00:54:44.780Z,96832.34
2022-09-17T00:59:46.128Z,96819.19
2022-09-17T01:04:47.491Z,96814.72
2022-09-17T01:10:04.204Z,96818.03
2022-09-17T01:15:05.448Z,96814.53
2022-09-17T01:20:19.018Z,96811.63
2022-09-17T01:25:29.599Z,96809.56
2022-09-17T01:30:36.932Z,96816.78
2022-09-17T01:35:44.386Z,96811.84
2022-09-17T01:40:50.831Z,96817.66
2022-09-17T01:46:21.557Z,96823.63
2022-09-17T01:51:24.284Z,96828.72
2022-09-17T01:56:27.859Z,96825.84
2022-09-17T02:01:31.890Z,96820.69
2022-09-17T02:06:35.937Z,96823.00
2022-09-17T02:11:39.155Z,96829.97
2022-09-17T02:16:44.675Z,96837.00
2022-09-17T02:21:54.092Z,96818.84
2022-09-17T02:27:11.986Z,96818.25
2022-09-17T02:32:13.452Z,96816.59
2022-09-17T02:37:14.964Z,96828.34
2022-09-17T02:42:19.645Z,96826.88
2022-09-17T02:47:25.159Z,96817.59
2022-09-17T02:52:36.598Z,96821.69
2022-09-17T02:57:53.421Z,96817.38
2022-09-17T03:03:01.032Z,96808.50
2022-09-17T03:08:02.360Z,96807.25
2022-09-17T03:13:04.068Z,96812.41
2022-09-17T03:18:05.419Z,96815.09
2022-09-17T03:23:06.705Z,96810.31
2022-09-17T03:28:08.140Z,96823.69
2022-09-17T03:33:09.630Z,96825.94
2022-09-17T03:38:11.201Z,96823.88
2022-09-17T03:43:12.512Z,96830.88
2022-09-17T03:48:13.797Z,96834.41
2022-09-17T03:53:15.341Z,96838.91
2022-09-17T03:58:16.665Z,96832.75
2022-09-17T04:03:17.962Z,96835.25
2022-09-17T04:08:19.470Z,96840.00
2022-09-17T04:13:20.993Z,96849.50
2022-09-17T04:18:22.276Z,96846.22
2022-09-17T04:23:23.564Z,96846.22
2022-09-17T04:28:24.844Z,96831.66
2022-09-17T04:33:26.132Z,96841.53
2022-09-17T04:38:27.509Z,96851.19
2022-09-17T04:43:28.800Z,96837.19
2022-09-17T04:48:30.155Z,96841.75
2022-09-17T04:53:31.459Z,96848.97
2022-09-17T04:58:32.980Z,96856.38
2022-09-17T05:03:34.281Z,96862.53
2022-09-17T05:08:35.567Z,96850.66
2022-09-17T05:13:36.893Z,96854.38
2022-09-17T05:18:38.175Z,96862.59
2022-09-17T05:23:39.478Z,96862.22
2022-09-17T05:28:40.981Z,96858.72
2022-09-17T05:33:42.290Z,96860.97
2022-09-17T05:38:43.610Z,96857.84
2022-09-17T05:43:44.891Z,96865.84
2022-09-17T05:48:46.215Z,96869.13
2022-09-17T05:53:47.556Z,96867.69
2022-09-17T05:58:48.897Z,96872.38
2022-09-17T06:03:50.313Z,96875.00
2022-09-17T06:08:51.603Z,96875.00
2022-09-17T06:13:53.629Z,96881.63
2022-09-17T06:18:55.109Z,96879.97
2022-09-17T06:23:56.512Z,96876.03
2022-09-17T06:28:58.749Z,96874.78
2022-09-17T06:34:01.709Z,96877.66
2022-09-17T06:39:03.365Z,96874.41
2022-09-17T06:44:04.920Z,96880.59
2022-09-17T07:08:12.858Z,96882.31
2022-09-17T07:13:14.120Z,96884.81
2022-09-17T07:18:15.971Z,96891.28
2022-09-17T07:23:17.258Z,96893.56
2022-09-17T07:28:18.746Z,96888.66
2022-09-17T07:33:23.268Z,96892.78
2022-09-17T07:38:24.873Z,96905.28
2022-09-17T07:43:27.134Z,96908.16
2022-09-17T07:48:28.844Z,96919.19
2022-09-17T07:53:30.142Z,96933.56
2022-09-17T07:58:33.401Z,96939.53
2022-09-17T08:03:35.263Z,96942.78
2022-09-17T08:08:37.134Z,96953.69
2022-09-17T08:13:38.806Z,96963.94
2022-09-17T08:18:40.226Z,96963.31
2022-09-17T08:23:42.526Z,96968.03
2022-09-17T08:28:44.664Z,96961.19
2022-09-17T08:33:46.504Z,96964.63
2022-09-17T08:38:49.639Z,96975.53
2022-09-17T08:43:58.653Z,96985.31
2022-09-17T08:49:11.545Z,96986.84
2022-09-17T08:54:13.229Z,96993.13
2022-09-17T08:59:22.957Z,96995.97
2022-09-17T09:04:39.246Z,96997.34
2022-09-17T09:09:46.684Z,96986.47
2022-09-17T09:14:50.777Z,96980.53
2022-09-17T09:19:54.354Z,96983.72
2022-09-17T09:25:01.555Z,96982.84
2022-09-17T09:30:04.369Z,96987.38
2022-09-17T09:35:19.544Z,96988.75
2022-09-17T09:40:30.235Z,97002.16
2022-09-17T09:45:54.856Z,97006.28
2022-09-17T09:51:07.164Z,97001.31
2022-09-17T09:56:26.844Z,96997.19
2022-09-17T10:01:29.947Z,96995.78
2022-09-17T10:06:31.370Z,96991.66
2022-09-17T10:11:35.338Z,97001.50
2022-09-17T10:16:36.649Z,97011.22
2022-09-17T10:21:42.279Z,97009.91
2022-09-17T10:26:43.670Z,97012.06
2022-09-17T10:31:49.672Z,97033.41
2022-09-17T10:36:51.526Z,97015.88
2022-09-17T10:41:59.078Z,97007.97
2022-09-17T10:47:15.468Z,97002.00
2022-09-17T10:52:25.945Z,97006.09
2022-09-17T10:57:35.428Z,97007.13
2022-09-17T11:02:55.414Z,97009.56
2022-09-17T11:08:17.190Z,97004.63
2022-09-17T11:13:25.097Z,97005.97
2022-09-17T11:18:34.897Z,97000.03
2022-09-17T11:23:56.087Z,96998.81
2022-09-17T11:29:12.376Z,96986.47
2022-09-17T11:34:35.965Z,96994.22
2022-09-17T11:39:45.248Z,97009.38
2022-09-17T11:44:49.497Z,97028.16
2022-09-17T11:49:55.561Z,97027.03
2022-09-17T11:55:16.223Z,97028.59
2022-09-17T12:00:18.792Z,97020.75
2022-09-17T12:05:29.433Z,97019.00
2022-09-17T12:10:42.672Z,97003.16
2022-09-17T12:15:52.301Z,97004.19
2022-09-17T12:20:57.068Z,97001.50
2022-09-17T12:26:06.591Z,97001.50
2022-09-17T12:31:17.692Z,96996.69
2022-09-17T12:36:25.565Z,96996.31
2022-09-17T12:41:32.727Z,96993.88
2022-09-17T12:46:34.040Z,96984.75
2022-09-17T12:51:50.235Z,96976.72
2022-09-17T12:56:51.483Z,96969.78
2022-09-17T13:01:55.803Z,96959.03
2022-09-17T13:07:01.584Z,96964.16
2022-09-17T13:12:13.895Z,96975.53
2022-09-17T13:17:22.705Z,96986.19
2022-09-17T13:22:27.937Z,96982.59
2022-09-17T13:27:29.382Z,96983.75
2022-09-17T13:32:33.798Z,96975.22
2022-09-17T13:37:39.873Z,96973.22
2022-09-17T13:42:46.294Z,96973.28
2022-09-17T13:48:05.502Z,96960.16
2022-09-17T13:53:15.912Z,96955.69
2022-09-17T13:58:23.428Z,96949.75
2022-09-17T14:03:30.971Z,96947.19
2022-09-17T14:08:47.803Z,96943.94
2022-09-17T14:13:53.093Z,96949.75
2022-09-17T14:19:02.237Z,96934.44
2022-09-17T14:24:15.324Z,96935.72
2022-09-17T14:29:32.157Z,96930.22
2022-09-17T14:34:33.459Z,96932.78
2022-09-17T14:39:39.510Z,96941.06
2022-09-17T14:44:49.051Z,96943.50
2022-09-17T14:49:50.693Z,96936.72
2022-09-17T14:55:10.713Z,96934.75
2022-09-17T15:00:16.718Z,96927.41
2022-09-17T15:05:21.294Z,96919.00
2022-09-17T15:10:22.665Z,96914.34
2022-09-17T15:15:26.175Z,96909.31
2022-09-17T15:20:28.781Z,96907.91
2022-09-17T15:25:31.126Z,96899.59
2022-09-17T15:30:33.141Z,96908.53
2022-09-17T15:35:34.766Z,96910.34
2022-09-17T15:40:42.578Z,96925.31
2022-09-17T15:45:43.989Z,96924.13
2022-09-17T15:50:53.310Z,96930.56
2022-09-17T15:56:03.055Z,96936.78
2022-09-17T16:01:16.913Z,96935.94
2022-09-17T16:06:18.495Z,96940.28
2022-09-17T16:11:20.945Z,96933.38
2022-09-17T16:16:28.697Z,96930.81
2022-09-17T16:21:31.120Z,96924.38
2022-09-17T16:26:33.590Z,96925.78
2022-09-17T16:31:35.113Z,96921.84
2022-09-17T16:36:36.588Z,96926.78
2022-09-17T16:41:37.908Z,96928.03
2022-09-17T16:46:39.877Z,96940.75
2022-09-17T16:51:41.211Z,96952.53
2022-09-17T16:56:42.494Z,96957.09
2022-09-17T17:01:43.836Z,96952.13
2022-09-17T17:06:45.161Z,96950.13
2022-09-17T17:11:46.487Z,96944.34
2022-09-17T17:16:47.878Z,96950.56
2022-09-17T17:21:52.700Z,96949.44
2022-09-17T17:26:53.988Z,96946.91
2022-09-17T17:31:55.261Z,96952.06
2022-09-17T17:36:56.632Z,96960.69
2022-09-17T17:41:57.989Z,96962.31
2022-09-17T17:46:59.349Z,96966.78
2022-09-17T17:52:00.888Z,96982.69
2022-09-17T17:57:02.192Z,96992.28
2022-09-17T18:02:04.158Z,96993.34
2022-09-17T18:07:05.521Z,97009.09
2022-09-17T18:12:06.957Z,97008.16
2022-09-17T18:17:08.247Z,97011.50
2022-09-17T18:22:09.583Z,97004.94
2022-09-17T18:27:10.932Z,97008.47
2022-09-17T18:32:12.229Z,97003.97
2022-09-17T18:37:13.625Z,97001.75
2022-09-17T18:42:14.974Z,97001.81
2022-09-17T18:47:17.385Z,97005.75
2022-09-17T18:52:18.782Z,96998.16
2022-09-17T18:57:20.109Z,97001.47
2022-09-17T19:02:21.638Z,97011.50
2022-09-17T19:07:23.276Z,97012.13
2022-09-17T19:12:24.591Z,97010.66
2022-09-17T19:17:26.066Z,97013.13
2022-09-17T19:22:27.433Z,97015.81
2022-09-17T19:27:29.338Z,97013.56
2022-09-17T19:32:31.751Z,97007.97
2022-09-17T19:37:33.043Z,97007.53
2022-09-17T19:42:34.798Z,97005.97
2022-09-17T19:47:36.087Z,96991.59
2022-09-17T19:52:37.428Z,96983.47
2022-09-17T19:57:39.244Z,96984.38
2022-09-17T20:02:40.746Z,96993.88
2022-09-17T20:07:42.725Z,96987.94
2022-09-17T20:12:44.037Z,96986.94
2022-09-17T20:17:45.367Z,96989.19
2022-09-17T20:22:49.594Z,96985.28
2022-09-17T20:27:50.975Z,96984.06
2022-09-17T20:32:54.709Z,96975.44
2022-09-17T20:38:57.304Z,96979.75
2022-09-17T20:43:17.326Z,96977.28
2022-09-17T20:48:18.661Z,96972.56
2022-09-17T20:53:19.968Z,96966.00
2022-09-17T20:58:21.889Z,96952.66
2022-09-17T21:03:23.274Z,96963.31
2022-09-17T21:08:24.589Z,96962.28
2022-09-17T21:13:25.911Z,96952.22
2022-09-17T21:18:27.677Z,96956.97
2022-09-17T21:23:29.666Z,96960.63
2022-09-17T21:28:31.951Z,96958.59
2022-09-17T21:33:33.347Z,96964.16
2022-09-17T21:38:34.694Z,96962.72
2022-09-17T21:43:36.454Z,96966.63
2022-09-17T21:48:42.435Z,96966.41
2022-09-17T21:53:43.841Z,96969.69
2022-09-17T21:58:45.823Z,96961.91
2022-09-17T22:03:47.303Z,96956.13
2022-09-17T22:08:49.810Z,96959.84
2022-09-17T22:13:53.086Z,96956.34
2022-09-17T22:18:54.489Z,96954.91
2022-09-17T22:23:57.781Z,96954.91
2022-09-17T22:29:03.201Z,96947.09
2022-09-17T22:34:08.312Z,96940.75
2022-09-17T22:39:09.840Z,96940.94
2022-09-17T22:44:12.785Z,96943.19
2022-09-17T22:49:14.632Z,96943.81
2022-09-17T22:54:16.900Z,96941.75
2022-09-17T22:59:18.496Z,96942.97
2022-09-17T23:04:19.848Z,96941.34
2022-09-17T23:09:21.128Z,96932.69
2022-09-17T23:14:22.388Z,96938.44
2022-09-17T23:19:23.719Z,96941.34
2022-09-17T23:24:25.101Z,96941.53
2022-09-17T23:29:26.365Z,96933.75
2022-09-17T23:34:27.646Z,96927.38
2022-09-17T23:39:28.922Z,96930.03
2022-09-17T23:44:30.200Z,96920.41
2022-09-17T23:49:31.486Z,96925.09
2022-09-17T23:54:32.740Z,96917.94
2022-09-17T23:59:34.077Z,96925.13
